createdAt,value
2023-01-30T00:35:49.783Z,22.37
2023-01-30T00:38:17.714Z,21.90
2023-01-30T00:40:46.295Z,22.93
2023-01-30T00:43:34.527Z,22.60
2023-01-30T00:46:24.543Z,20.90
2023-01-30T00:48:52.162Z,22.30
2023-01-30T00:51:19.761Z,21.17
2023-01-30T00:53:47.363Z,20.67
2023-01-30T00:56:15.094Z,20.60
2023-01-30T00:58:42.698Z,22.27
2023-01-30T01:01:10.271Z,20.60
2023-01-30T01:03:37.873Z,20.13
2023-01-30T01:06:06.403Z,20.87
2023-01-30T01:08:34.083Z,22.50
2023-01-30T01:11:01.811Z,21.43
2023-01-30T01:13:29.475Z,21.00
2023-01-30T01:15:57.192Z,19.30
2023-01-30T01:18:24.885Z,19.93
2023-01-30T01:20:52.500Z,19.40
2023-01-30T01:23:20.177Z,20.77
2023-01-30T01:25:47.797Z,20.43
2023-01-30T01:28:15.859Z,21.27
2023-01-30T01:30:43.439Z,20.07
2023-01-30T01:33:11.020Z,20.20
2023-01-30T01:35:44.585Z,20.17
2023-01-30T01:38:12.265Z,20.67
2023-01-30T01:40:58.326Z,20.70
2023-01-30T01:43:26.464Z,19.43
2023-01-30T01:46:06.421Z,19.70
2023-01-30T01:48:44.845Z,20.70
2023-01-30T01:51:17.350Z,19.77
2023-01-30T01:53:55.422Z,19.67
2023-01-30T01:56:23.767Z,19.87
2023-01-30T01:58:55.994Z,19.93
2023-01-30T02:01:23.801Z,19.13
2023-01-30T02:03:56.786Z,20.50
2023-01-30T02:06:24.529Z,20.43
2023-01-30T02:08:55.979Z,18.40
2023-01-30T02:11:31.434Z,19.17
2023-01-30T02:14:01.375Z,19.00
2023-01-30T02:16:29.022Z,18.77
2023-01-30T02:18:56.686Z,19.83
2023-01-30T02:22:01.281Z,19.17
2023-01-30T02:24:53.392Z,18.57
2023-01-30T02:27:24.297Z,20.40
2023-01-30T02:30:00.867Z,19.50
2023-01-30T02:32:52.974Z,19.60
2023-01-30T02:35:26.890Z,19.37
2023-01-30T02:38:15.761Z,19.13
2023-01-30T02:41:06.905Z,18.63
2023-01-30T02:43:52.146Z,16.93
2023-01-30T02:46:44.074Z,19.40
2023-01-30T02:49:15.724Z,18.73
2023-01-30T02:51:46.016Z,17.03
2023-01-30T02:54:14.709Z,17.90
2023-01-30T02:56:46.812Z,17.57
2023-01-30T02:59:19.145Z,17.97
2023-01-30T03:02:25.348Z,17.13
2023-01-30T03:05:10.832Z,17.97
2023-01-30T03:08:19.234Z,17.23
2023-01-30T03:11:00.832Z,18.03
2023-01-30T03:13:43.838Z,17.97
2023-01-30T03:16:14.835Z,17.93
2023-01-30T03:18:43.966Z,18.10
2023-01-30T03:21:12.380Z,17.73
2023-01-30T03:23:40.012Z,17.77
2023-01-30T03:26:14.958Z,16.63
2023-01-30T03:28:43.850Z,18.27
2023-01-30T03:31:11.565Z,17.57
2023-01-30T03:33:39.315Z,16.30
2023-01-30T03:36:07.264Z,17.23
2023-01-30T03:38:36.029Z,18.00
2023-01-30T03:41:05.249Z,18.90
2023-01-30T03:43:33.179Z,18.40
2023-01-30T03:46:00.834Z,17.60
2023-01-30T03:48:28.675Z,17.53
2023-01-30T03:50:56.339Z,17.93
2023-01-30T03:53:23.944Z,17.87
2023-01-30T03:55:51.650Z,17.93
2023-01-30T03:58:19.226Z,16.73
2023-01-30T04:00:46.871Z,17.73
2023-01-30T04:03:15.773Z,17.10
2023-01-30T04:05:46.296Z,17.67
2023-01-30T04:08:13.897Z,17.10
2023-01-30T04:10:41.485Z,18.20
2023-01-30T04:13:09.078Z,17.67
2023-01-30T04:15:36.678Z,17.10
2023-01-30T04:18:04.601Z,17.03
2023-01-30T04:20:32.305Z,17.07
2023-01-30T04:22:59.957Z,16.03
2023-01-30T04:25:27.767Z,16.63
2023-01-30T04:27:55.465Z,17.13
2023-01-30T04:30:24.225Z,15.97
2023-01-30T04:32:54.297Z,16.57
2023-01-30T04:35:21.869Z,16.20
2023-01-30T04:37:52.740Z,16.33
2023-01-30T04:40:25.512Z,16.70
2023-01-30T04:42:53.108Z,16.97
2023-01-30T04:45:20.816Z,16.53
2023-01-30T04:47:49.864Z,16.80
2023-01-30T04:50:17.483Z,16.83
2023-01-30T04:52:45.090Z,17.90
2023-01-30T04:55:12.725Z,16.77
2023-01-30T04:57:40.314Z,16.47
2023-01-30T05:00:08.774Z,15.77
2023-01-30T05:02:36.400Z,16.90
2023-01-30T05:05:04.270Z,16.83
2023-01-30T05:07:32.013Z,17.07
2023-01-30T05:09:59.687Z,16.57
2023-01-30T05:12:27.277Z,16.07
2023-01-30T05:14:55.388Z,15.33
2023-01-30T05:17:23.277Z,17.60
2023-01-30T05:19:50.890Z,16.10
2023-01-30T05:22:18.730Z,15.93
2023-01-30T05:24:46.349Z,15.13
2023-01-30T05:27:13.925Z,17.03
2023-01-30T05:29:41.674Z,15.60
2023-01-30T05:32:14.199Z,15.77
2023-01-30T05:34:41.903Z,16.07
2023-01-30T05:37:09.874Z,14.90
2023-01-30T05:39:37.565Z,15.47
2023-01-30T05:44:56.615Z,15.83
2023-01-30T05:47:27.607Z,13.87
2023-01-30T05:49:58.854Z,14.50
2023-01-30T05:52:29.489Z,12.67
2023-01-30T05:54:57.150Z,12.63
2023-01-30T05:57:25.402Z,12.83
2023-01-30T05:59:56.137Z,12.87
2023-01-30T06:02:29.390Z,12.77
2023-01-30T06:05:02.676Z,11.97
2023-01-30T06:07:30.884Z,11.17
2023-01-30T06:14:03.291Z,11.60
2023-01-30T06:16:30.990Z,11.73
2023-01-30T06:18:58.703Z,11.20
2023-01-30T06:21:26.314Z,10.73
2023-01-30T06:23:53.923Z,10.43
2023-01-30T06:26:21.489Z,10.73
2023-01-30T06:28:49.732Z,8.93
2023-01-30T06:31:18.466Z,9.10
2023-01-30T06:33:46.087Z,9.40
2023-01-30T06:36:13.680Z,10.90
2023-01-30T06:38:41.342Z,9.40
2023-01-30T06:41:09.005Z,8.63
2023-01-30T06:43:38.912Z,9.10
2023-01-30T06:46:06.759Z,9.17
2023-01-30T06:48:34.362Z,9.60
2023-01-30T06:51:04.898Z,8.63
2023-01-30T06:53:32.525Z,8.70
2023-01-30T06:56:01.406Z,9.07
2023-01-30T06:58:29.081Z,7.90
2023-01-30T07:00:56.748Z,8.60
2023-01-30T07:03:24.523Z,8.30
2023-01-30T07:05:52.244Z,10.13
2023-01-30T07:08:19.910Z,9.43
2023-01-30T07:10:47.565Z,9.80
2023-01-30T07:13:15.561Z,8.83
2023-01-30T07:15:43.168Z,9.60
2023-01-30T07:18:10.748Z,10.37
2023-01-30T07:20:38.662Z,10.50
2023-01-30T07:23:06.283Z,10.50
2023-01-30T07:25:34.337Z,10.50
2023-01-30T07:28:06.101Z,10.27
2023-01-30T07:30:36.136Z,9.90
2023-01-30T07:33:06.616Z,9.40
2023-01-30T07:35:36.176Z,8.67
2023-01-30T07:38:05.572Z,9.23
2023-01-30T07:40:33.296Z,8.17
2023-01-30T07:43:06.611Z,8.27
2023-01-30T07:45:44.604Z,8.93
2023-01-30T07:48:18.218Z,8.27
2023-01-30T07:50:46.741Z,8.10
2023-01-30T07:53:20.733Z,7.60
2023-01-30T07:55:48.814Z,7.83
2023-01-30T07:58:19.576Z,7.30
2023-01-30T08:00:47.289Z,6.97
2023-01-30T08:03:16.180Z,6.90
2023-01-30T08:05:46.922Z,7.53
2023-01-30T08:08:15.017Z,6.80
2023-01-30T08:10:43.139Z,6.47
2023-01-30T08:13:10.727Z,6.40
2023-01-30T08:15:38.284Z,6.07
2023-01-30T08:18:07.315Z,5.10
2023-01-30T08:20:37.883Z,5.00
2023-01-30T08:23:05.826Z,5.50
2023-01-30T08:25:35.334Z,4.93
2023-01-30T08:28:04.300Z,4.80
2023-01-30T08:30:32.008Z,4.33
2023-01-30T08:33:01.047Z,4.43
2023-01-30T08:35:28.661Z,4.33
2023-01-30T08:37:56.719Z,4.87
2023-01-30T08:40:24.341Z,4.37
2023-01-30T08:42:51.981Z,4.00
2023-01-30T08:45:19.652Z,4.00
2023-01-30T08:47:47.280Z,3.97
2023-01-30T08:50:15.044Z,4.10
2023-01-30T08:52:42.603Z,3.93
2023-01-30T08:55:10.348Z,3.60
2023-01-30T08:57:37.954Z,3.57
2023-01-30T09:00:06.362Z,3.47
2023-01-30T09:02:34.859Z,3.20
2023-01-30T09:05:02.730Z,3.10
2023-01-30T09:07:30.655Z,2.73
2023-01-30T09:09:58.242Z,2.53
2023-01-30T09:12:26.794Z,2.47
2023-01-30T09:14:55.719Z,2.20
2023-01-30T09:17:23.583Z,2.80
2023-01-30T09:19:51.134Z,2.53
2023-01-30T09:22:18.726Z,2.60
2023-01-30T09:24:46.288Z,2.60
2023-01-30T09:27:16.880Z,2.43
2023-01-30T09:29:45.511Z,2.20
2023-01-30T09:32:15.999Z,2.20
2023-01-30T09:34:43.613Z,1.93
2023-01-30T09:37:11.196Z,1.90
2023-01-30T09:39:38.768Z,2.13
2023-01-30T09:42:25.046Z,1.70
2023-01-30T09:44:58.685Z,1.77
2023-01-30T09:47:47.340Z,1.77
2023-01-30T09:50:28.498Z,1.90
2023-01-30T09:52:59.708Z,2.23
2023-01-30T09:55:30.716Z,2.30
2023-01-30T09:57:59.744Z,1.97
2023-01-30T10:00:32.799Z,1.90
2023-01-30T10:03:09.048Z,2.13
2023-01-30T10:06:02.337Z,1.60
2023-01-30T10:08:42.941Z,1.60
2023-01-30T10:11:26.411Z,1.70
2023-01-30T10:13:56.694Z,1.70
2023-01-30T10:16:54.303Z,1.90
2023-01-30T10:19:34.688Z,1.70
2023-01-30T10:22:46.494Z,1.70
2023-01-30T10:25:29.252Z,1.53
2023-01-30T10:28:20.101Z,1.50
2023-01-30T10:30:51.055Z,1.40
2023-01-30T10:33:33.752Z,1.60
2023-01-30T10:36:10.069Z,1.17
2023-01-30T10:38:52.355Z,1.30
2023-01-30T10:41:26.273Z,1.50
2023-01-30T10:44:11.067Z,1.43
2023-01-30T10:46:54.324Z,1.30
2023-01-30T10:49:45.228Z,1.40
2023-01-30T10:52:25.989Z,1.20
2023-01-30T10:55:15.544Z,1.50
2023-01-30T10:58:14.252Z,1.27
2023-01-30T11:00:43.851Z,1.30
2023-01-30T11:03:27.598Z,1.10
2023-01-30T11:06:03.238Z,1.40
2023-01-30T11:08:33.987Z,1.23
2023-01-30T11:11:19.990Z,1.30
2023-01-30T11:13:47.574Z,1.30
2023-01-30T11:16:17.311Z,1.30
2023-01-30T11:19:18.778Z,1.30
2023-01-30T11:21:43.924Z,1.33
2023-01-30T11:24:31.146Z,1.10
2023-01-30T11:27:25.199Z,1.20
2023-01-30T11:30:07.438Z,1.23
2023-01-30T11:32:35.016Z,1.20
2023-01-30T11:35:08.670Z,1.33
2023-01-30T11:37:38.719Z,1.20
2023-01-30T11:40:25.657Z,1.20
2023-01-30T11:43:04.302Z,1.53
2023-01-30T11:45:51.447Z,1.53
2023-01-30T11:48:33.834Z,1.63
2023-01-30T11:51:11.347Z,1.50
2023-01-30T11:53:56.947Z,1.77
2023-01-30T11:56:47.594Z,1.40
2023-01-30T11:59:27.603Z,2.20
2023-01-30T12:02:23.334Z,1.60
2023-01-30T12:04:55.561Z,2.63
2023-01-30T12:07:24.202Z,2.00
2023-01-30T12:09:54.017Z,1.60
2023-01-30T12:12:40.971Z,1.77
2023-01-30T12:15:15.585Z,1.40
2023-01-30T12:17:49.524Z,1.30
2023-01-30T12:20:38.505Z,1.40
2023-01-30T12:23:12.040Z,1.70
2023-01-30T12:25:44.137Z,1.60
2023-01-30T12:28:30.015Z,1.40
2023-01-30T12:31:10.343Z,1.80
2023-01-30T12:33:38.224Z,1.60
2023-01-30T12:36:32.200Z,1.93
2023-01-30T12:39:18.610Z,1.87
2023-01-30T12:42:09.674Z,2.10
2023-01-30T12:45:04.712Z,2.17
2023-01-30T12:47:35.254Z,2.07
2023-01-30T12:50:06.464Z,2.10
2023-01-30T12:52:52.897Z,1.70
2023-01-30T12:55:58.163Z,1.90
2023-01-30T12:58:55.458Z,1.67
2023-01-30T13:01:29.560Z,1.73
2023-01-30T13:04:56.530Z,1.90
2023-01-30T13:07:53.651Z,1.70
2023-01-30T13:10:42.725Z,1.60
2023-01-30T13:13:48.554Z,1.90
2023-01-30T13:16:33.282Z,1.67
2023-01-30T13:19:20.877Z,1.80
2023-01-30T13:22:06.096Z,1.70
2023-01-30T13:24:58.158Z,1.70
2023-01-30T13:27:28.199Z,1.57
2023-01-30T13:29:57.882Z,2.30
2023-01-30T13:32:41.480Z,1.80
2023-01-30T13:35:31.218Z,1.97
2023-01-30T13:38:03.175Z,1.87
2023-01-30T13:40:39.293Z,2.00
2023-01-30T13:43:19.979Z,2.23
2023-01-30T13:45:50.226Z,1.93
2023-01-30T13:48:26.870Z,1.90
2023-01-30T13:51:12.990Z,2.10
2023-01-30T13:53:58.740Z,2.73
2023-01-30T13:56:43.191Z,2.53
2023-01-30T13:59:29.284Z,1.87
2023-01-30T14:01:59.498Z,2.90
2023-01-30T14:04:51.337Z,2.03
2023-01-30T14:07:30.889Z,2.17
2023-01-30T14:10:09.121Z,2.60
2023-01-30T14:12:41.022Z,1.90
2023-01-30T14:15:14.572Z,2.43
2023-01-30T14:18:04.547Z,2.20
2023-01-30T14:20:33.831Z,2.33
2023-01-30T14:23:21.501Z,2.20
2023-01-30T14:25:56.345Z,1.77
2023-01-30T14:28:24.095Z,2.57
2023-01-30T14:30:56.894Z,2.43
2023-01-30T14:33:24.494Z,2.10
2023-01-30T14:36:01.131Z,2.23
2023-01-30T14:38:45.307Z,4.10
2023-01-30T14:41:26.797Z,5.50
2023-01-30T14:43:55.703Z,2.60
2023-01-30T14:46:23.287Z,2.27
2023-01-30T14:49:05.201Z,2.43
2023-01-30T14:51:48.851Z,2.60
2023-01-30T14:54:16.507Z,2.07
2023-01-30T14:56:55.749Z,2.20
2023-01-30T15:00:02.676Z,2.20
2023-01-30T15:02:47.881Z,2.40
2023-01-30T15:05:33.424Z,2.17
2023-01-30T15:08:20.815Z,2.70
2023-01-30T15:11:06.329Z,2.03
2023-01-30T15:13:36.739Z,2.30
2023-01-30T15:16:10.325Z,2.43
2023-01-30T15:19:06.202Z,2.40
2023-01-30T15:21:58.362Z,2.70
2023-01-30T15:24:59.853Z,2.83
2023-01-30T15:27:48.422Z,2.90
2023-01-30T15:30:25.982Z,2.90
2023-01-30T15:33:29.835Z,3.23
2023-01-30T15:35:59.924Z,2.03
2023-01-30T15:38:32.647Z,3.30
2023-01-30T15:41:05.896Z,2.70
2023-01-30T15:44:01.805Z,2.23
2023-01-30T15:46:44.247Z,2.43
2023-01-30T15:49:30.964Z,2.90
2023-01-30T15:52:04.128Z,2.10
2023-01-30T15:54:31.818Z,2.23
2023-01-30T15:57:00.902Z,2.83
2023-01-30T15:59:40.114Z,2.53
2023-01-30T16:02:25.795Z,2.17
2023-01-30T16:05:12.879Z,2.57
2023-01-30T16:07:40.616Z,2.80
2023-01-30T16:10:29.071Z,3.10
2023-01-30T16:12:58.229Z,3.23
2023-01-30T16:15:55.549Z,2.70
2023-01-30T16:18:41.167Z,2.20
2023-01-30T16:21:17.111Z,2.80
2023-01-30T16:24:00.319Z,3.57
2023-01-30T16:26:28.302Z,2.57
2023-01-30T16:29:02.385Z,2.47
2023-01-30T16:31:34.682Z,2.83
2023-01-30T16:34:22.542Z,2.53
2023-01-30T16:36:50.289Z,2.70
2023-01-30T16:39:30.154Z,3.07
2023-01-30T16:41:59.693Z,3.20
2023-01-30T16:44:31.934Z,3.07
2023-01-30T16:47:05.736Z,2.40
2023-01-30T16:49:36.057Z,2.63
2023-01-30T16:52:06.309Z,2.73
2023-01-30T16:54:35.129Z,2.57
2023-01-30T16:57:03.611Z,3.20
2023-01-30T16:59:38.501Z,2.53
2023-01-30T17:02:25.875Z,2.80
2023-01-30T17:04:53.494Z,3.13
2023-01-30T17:07:35.100Z,2.97
2023-01-30T17:10:02.775Z,3.40
2023-01-30T17:12:30.998Z,2.57
2023-01-30T17:15:13.391Z,2.63
2023-01-30T17:17:41.779Z,2.80
2023-01-30T17:20:11.742Z,2.83
2023-01-30T17:22:43.074Z,2.50
2023-01-30T17:25:32.720Z,2.73
2023-01-30T17:28:03.237Z,2.97
2023-01-30T17:30:31.477Z,2.80
2023-01-30T17:32:59.094Z,3.00
2023-01-30T17:35:26.716Z,2.80
2023-01-30T17:38:05.730Z,3.53
2023-01-30T17:40:37.253Z,2.60
2023-01-30T17:43:05.073Z,2.67
2023-01-30T17:45:32.816Z,3.20
2023-01-30T17:48:03.239Z,2.60
2023-01-30T17:50:32.434Z,2.80
2023-01-30T17:53:00.016Z,3.70
2023-01-30T17:55:27.643Z,3.13
2023-01-30T17:57:56.414Z,3.00
2023-01-30T18:00:24.227Z,3.10
2023-01-30T18:02:52.986Z,3.03
2023-01-30T18:05:22.428Z,2.90
2023-01-30T18:07:50.028Z,3.07
2023-01-30T18:10:20.047Z,3.37
2023-01-30T18:12:50.600Z,3.30
2023-01-30T18:15:18.515Z,3.30
2023-01-30T18:17:48.431Z,3.73
2023-01-30T18:20:20.452Z,3.30
2023-01-30T18:22:48.472Z,3.10
2023-01-30T18:25:17.153Z,3.10
2023-01-30T18:27:47.180Z,3.20
2023-01-30T18:30:17.505Z,2.80
2023-01-30T18:32:52.851Z,2.90
2023-01-30T18:35:22.861Z,2.50
2023-01-30T18:37:51.015Z,2.83
2023-01-30T18:40:20.238Z,2.77
2023-01-30T18:42:48.206Z,2.60
2023-01-30T18:45:15.934Z,3.20
2023-01-30T18:47:43.568Z,3.37
2023-01-30T18:50:11.323Z,3.73
2023-01-30T18:52:41.678Z,2.57
2023-01-30T18:55:09.513Z,3.23
2023-01-30T18:57:39.996Z,2.70
2023-01-30T19:00:08.362Z,2.73
2023-01-30T19:02:35.996Z,3.10
2023-01-30T19:05:03.814Z,3.03
2023-01-30T19:07:31.361Z,3.57
2023-01-30T19:09:59.446Z,3.53
2023-01-30T19:12:45.907Z,2.93
2023-01-30T19:15:13.642Z,3.03
2023-01-30T19:17:41.263Z,2.90
2023-01-30T19:20:11.993Z,3.00
2023-01-30T19:22:39.828Z,3.03
2023-01-30T19:25:08.067Z,3.77
2023-01-30T19:27:38.586Z,4.10
2023-01-30T19:30:06.979Z,3.63
2023-01-30T19:32:35.031Z,2.87
2023-01-30T19:35:02.961Z,2.50
2023-01-30T19:37:30.614Z,2.83
2023-01-30T19:39:58.184Z,3.00
2023-01-30T19:42:25.925Z,2.87
2023-01-30T19:44:53.692Z,3.27
2023-01-30T19:47:22.834Z,2.60
2023-01-30T19:49:50.489Z,3.20
2023-01-30T19:52:18.082Z,3.37
2023-01-30T19:54:46.999Z,2.40
2023-01-30T19:57:14.606Z,3.17
2023-01-30T19:59:42.726Z,3.00
2023-01-30T20:02:12.560Z,3.00
2023-01-30T20:04:42.993Z,2.90
2023-01-30T20:07:10.600Z,2.97
2023-01-30T20:09:38.257Z,3.10
2023-01-30T20:12:09.232Z,3.33
2023-01-30T20:14:36.985Z,2.77
2023-01-30T20:17:07.246Z,3.30
2023-01-30T20:19:34.793Z,3.53
2023-01-30T20:22:08.034Z,3.60
2023-01-30T20:24:35.976Z,4.03
2023-01-30T20:27:04.043Z,3.50
2023-01-30T20:29:31.599Z,3.50
2023-01-30T20:31:59.414Z,3.07
2023-01-30T20:34:27.268Z,3.07
2023-01-30T20:36:54.920Z,3.60
2023-01-30T20:39:22.779Z,3.23
2023-01-30T20:41:50.375Z,3.43
2023-01-30T20:44:21.146Z,3.50
2023-01-30T20:46:49.747Z,2.90
2023-01-30T20:49:19.693Z,3.30
2023-01-30T20:51:51.965Z,3.83
2023-01-30T20:54:24.367Z,3.40
2023-01-30T20:56:53.807Z,3.73
2023-01-30T20:59:25.718Z,3.50
2023-01-30T21:01:53.903Z,3.80
2023-01-30T21:04:25.703Z,3.50
2023-01-30T21:06:53.304Z,4.00
2023-01-30T21:09:22.905Z,4.00
2023-01-30T21:11:54.790Z,3.70
2023-01-30T21:14:26.608Z,3.77
2023-01-30T21:16:54.537Z,3.90
2023-01-30T21:19:25.025Z,3.47
2023-01-30T21:21:54.974Z,3.73
2023-01-30T21:24:25.818Z,4.50
2023-01-30T21:26:58.288Z,3.63
2023-01-30T21:29:27.523Z,4.03
2023-01-30T21:31:56.815Z,4.30
2023-01-30T21:34:25.103Z,3.67
2023-01-30T21:37:11.482Z,3.73
2023-01-30T21:39:57.801Z,3.63
2023-01-30T21:42:44.182Z,3.20
2023-01-30T21:45:11.876Z,3.43
2023-01-30T21:47:39.919Z,3.63
2023-01-30T21:50:08.285Z,4.30
2023-01-30T21:52:36.671Z,3.47
2023-01-30T21:55:04.715Z,3.43
2023-01-30T21:57:32.304Z,3.40
2023-01-30T21:59:59.946Z,2.90
2023-01-30T22:02:27.511Z,3.07
2023-01-30T22:04:55.064Z,3.13
2023-01-30T22:07:23.975Z,3.67
2023-01-30T22:09:51.615Z,3.77
2023-01-30T22:12:19.275Z,3.50
2023-01-30T22:14:48.018Z,3.13
2023-01-30T22:17:15.694Z,3.90
2023-01-30T22:19:46.346Z,3.37
2023-01-30T22:22:13.916Z,3.00
2023-01-30T22:24:43.958Z,3.47
2023-01-30T22:27:11.625Z,3.27
2023-01-30T22:29:39.681Z,3.13
2023-01-30T22:32:07.325Z,4.27
2023-01-30T22:34:36.003Z,3.33
2023-01-30T22:37:04.239Z,3.40
2023-01-30T22:39:31.865Z,3.13
2023-01-30T22:41:59.410Z,3.80
2023-01-30T22:44:30.040Z,4.07
2023-01-30T22:46:59.865Z,3.33
2023-01-30T22:49:27.529Z,3.33
2023-01-30T22:51:55.136Z,4.03
2023-01-30T22:54:24.952Z,3.57
2023-01-30T22:56:52.775Z,3.70
2023-01-30T22:59:21.694Z,3.43
2023-01-30T23:01:53.365Z,3.50
2023-01-30T23:04:24.656Z,3.63
2023-01-30T23:06:52.401Z,4.00
2023-01-30T23:09:22.515Z,3.40
2023-01-30T23:12:14.562Z,4.03
2023-01-30T23:14:42.821Z,4.30
2023-01-30T23:17:29.743Z,3.73
2023-01-30T23:19:57.381Z,3.83
2023-01-30T23:22:24.999Z,4.03
2023-01-30T23:24:52.863Z,4.33
2023-01-30T23:27:21.097Z,4.27
2023-01-30T23:29:51.139Z,3.73
2023-01-30T23:32:20.014Z,3.77
2023-01-30T23:34:47.990Z,3.93
2023-01-30T23:37:16.134Z,4.70
2023-01-30T23:39:44.595Z,4.70
2023-01-30T23:42:14.959Z,4.17
2023-01-30T23:44:42.708Z,4.60
2023-01-30T23:47:10.264Z,4.40
2023-01-30T23:49:40.446Z,3.83
2023-01-30T23:52:10.575Z,4.20
2023-01-30T23:54:40.924Z,4.07
2023-01-30T23:57:08.487Z,3.80
2023-01-30T23:59:36.293Z,4.37
